STE.-Anne-De-Bellevue, Quebec

9:05 AM EST on February 10, 2016 (GMT -0500)
Village de Beaurepaire Village | | Change Station
CLOSE
Current Station
Personal Weather Station
Location: Beaconsfield, QUEBEC
Elevation: 95 ft
Nearby Weather Stations

Elev 95 ft 45.42 °N, 73.88 °W | Updated 1 minute ago

Light Snow
Light Snow
20.6 °F
Feels Like 21 °F
N
1.0
Wind Variable Wind from North
Gusts 4.0 mph

Today is forecast to be nearly the same temperature as yesterday.

Today
High -- | Low -- °F
--% Chance of Precip.
Yesterday
High -- | Low -- °F
Precip. -- in
Pressure 29.56 in
Visibility 4.0 miles
Clouds Overcast 3200 ft
Windchill 21 °F
Dew Point 16 °F
Humidity 83%
Rainfall 0.00 in
Snow Depth Not available.
7:05 AM 5:15 PM
Waxing Crescent, 5% visible
METAR CYUL 101400Z 01006KT 4SM -SN OVC032 M07/M09 A2955 RMK SC8 SLP010
Pressure 29.56 in
Visibility 4.0 miles
Clouds Overcast 3200 ft
Windchill 21 °F
Dew Point 16 °F
Humidity 83%
Rainfall 0.00 in
Snow Depth Not available.
7:05 AM 5:15 PM
Waxing Crescent, 5% visible
METAR CYUL 101400Z 01006KT 4SM -SN OVC032 M07/M09 A2955 RMK SC8 SLP010

10-Day Weather Forecast

Heavy Snow conditions possible.

Almanac

Astronomy

Feb. 10, 2016 Rise Set
Actual Time
Civil Twilight
Nautical Twilight
Astronomical Twilight
Moon
Length of Visible Light
Length of Day
Tomorrow will be .
, % of the Moon is Illuminated

Today's Extremes

Country Highs Country Lows

Community

WunderPhotos

Upload Photos

1,891,846 photos uploaded!

WunderBlog® & News

Nearby

Air Quality

  Air Quality AQ Index Pollutant
Not available.

Snow Depth

Station Depth Elevation

Earthquake Activity

City Distance Mag. Time & Date
Minimum magnitude displayed is 2.5.

Coastal Water Temperatures

Place Temperature

Stations

Nearby Weather Stations

Station Location Temp. Windchill Dew Point Humidity Wind Precip. Elev Updated Type
                   

Watches & Warnings

There are currently no watches in effect.